Terminal Aerodrome Forecast
Issued by NWS

Home | Current Version | Previous Version | Text Only | Print | Product List | Glossary On
Versions: 1 2 3 4 5 6 7 8 9 10 11 12 13 14 15 16 17 18 19 20 21
000
FTUS44 KLZK 080534
TAFLLQ
TAF
KLLQ 080534Z 0806/0906 18006KT P6SM SCT250
     FM081200 20008KT P6SM SCT025
     FM081600 21014G20KT P6SM SCT045=

USA.gov is the U.S. government's official web portal to all federal, state and local government web resources and services.